Rapports des METAR proches

 

LFAQ - Bray, France
Distance from station: SSO 19km
Mise à jour: 12/12/2018 03:00

 Vent SE
Vent: SE 7 km/h
Visibility: 0 km
2018/12/12 02:00 LFAQ 120200Z AUTO 13004KT 0400 0350 R27/0550N FZFG VV/// M01/M01 Q1024
LFQQ - Lille/Lesquin, France
Distance from station: NNE 53km
Mise à jour: 12/12/2018 03:00
Brume, Quelques nuages
Brume, Quelques nuages
 Vent SSO
Vent: SSO 4 km/h
Température: 1°C
Point de rosée: 1°C
Humidité: 100%
Baromètre: 1025 hPa
Résumé: Brume
Clouds: Quelques nuages
Visibility: 5 km
Cloud details: Quelques nuages 1372 m
2018/12/12 02:00 LFQQ 120200Z AUTO 21002KT 5000 BR FEW045 01/01 Q1025 BECMG 0500 FG VV///
EBCV - Chievres Ab, Belgium
Distance from station: NE 88km
Mise à jour: 12/12/2018 02:55
Brume, Clair
Brume, Clair
 Vent varies
Vent: varies 4 km/h
Température: -1°C
Point de rosée: -2°C
Humidité: 93%
Baromètre: 1025 hPa
Résumé: Brume
Clouds: Clair
Visibility: 3 km
2018/12/12 01:55 EBCV 120155Z AUTO VRB02KT 3300 BR NCD M01/M02 Q1025 YLO
 
LFOB - Beauvais/Tille(A, France
Distance from station: SSO 88km
Mise à jour: 12/12/2018 03:00
Brume, Couvert
Brume, Couvert
 Vent ESE
Vent: ESE 4 km/h
Température: 2°C
Point de rosée: 2°C
Humidité: 100%
Baromètre: 1024 hPa
Résumé: Brume
Clouds: Couvert
Visibility: 4 km
Cloud details: Couvert 61 m
2018/12/12 02:00 LFOB 120200Z AUTO 11002KT 3800 BR OVC002 02/02 Q1024 TEMPO 0200 FG VV///
LFAT - Le Touquet/P. Pl, France
Distance from station: ONO 93km
Mise à jour: 12/12/2018 03:00
Couvert
Couvert
 Vent ESE
Vent: ESE 13 km/h
Température: 4°C
Température au vent: 1°C
Point de rosée: 2°C
Humidité: 87%
Baromètre: 1024 hPa
Clouds: Couvert
Visibility: 10 km
Cloud details: Couvert 1280 m
2018/12/12 02:00 LFAT 120200Z AUTO 11007KT 9999 OVC042 04/02 Q1024
LFPC - Creil (fafb), France
Distance from station: S 100km
Mise à jour: 01/09/2016 17:00
NOT Current
Clair
Clair
 Vent ONO
Vent: ONO 7 km/h
Température: 24°C
Point de rosée: 13°C
Humidité: 50%
Baromètre: 1023 hPa
Résumé: Clair
Visibility: greater than 10 km
2016/09/01 15:00 LFPC 011500Z AUTO 30004KT 240V350 CAVOK 24/13 Q1023
 
EBFN - Koksijde (bel-Af, Belgium
Distance from station: N 105km
Mise à jour: 12/12/2018 03:09
Brume, Partiellement nuageux
Brume, Partiellement nuageux
 Vent varies
Vent: varies 2 km/h
Température: 2°C
Point de rosée: 0°C
Humidité: 87%
Baromètre: 1025 hPa
Résumé: Brume
Clouds: Partiellement nuageux
Visibility: 4 km
Cloud details: Partiellement nuageux 1433 m
2018/12/12 02:09 EBFN 120209Z AUTO VRB01KT 3500 BR SCT047/// 02/00 Q1025 YLO
EBOS - Oostende Airport, Belgium
Distance from station: N 119km
Mise à jour: 12/12/2018 03:20
Très nuageux
Très nuageux
 Vent SSE
Vent: SSE 6 km/h
Température: 3°C
Point de rosée: 1°C
Humidité: 87%
Baromètre: 1025 hPa
Clouds: Très nuageux
Visibility: 10 km
Cloud details: Quelques nuages 1006 m
Très nuageux 1372 m
2018/12/12 02:20 EBOS 120220Z 16003KT 9999 FEW033 BKN045 03/01 Q1025 NOSIG
EBCI - Charleroi/Gossel, Belgium
Distance from station: ENE 124km
Mise à jour: 12/12/2018 03:20
Clair
Clair
 Vent SO
Vent: SO 6 km/h
Température: 1°C
Point de rosée: 0°C
Humidité: 93%
Baromètre: 1024 hPa
Résumé: Clair
Visibility: greater than 10 km
2018/12/12 02:20 EBCI 120220Z 22003KT CAVOK 01/M00 Q1024 NOSIG
 
LFPG - Charles De Gaull, France
Distance from station: S 125km
Mise à jour: 12/12/2018 03:00
Très nuageux
Très nuageux
 Vent SE
Vent: SE 7 km/h
Température: 1°C
Température au vent: -2°C
Point de rosée: 0°C
Humidité: 93%
Baromètre: 1024 hPa
Clouds: Très nuageux
Visibility: 6 km
Cloud details: Quelques nuages 61 m
Très nuageux 7925 m
2018/12/12 02:00 LFPG 120200Z 13004KT 6000 FEW002 BKN260 01/00 Q1024 TEMPO 0800 BCFG BKN002
LFPT - Cormeilles Vexin, France
Distance from station: SSO 127km
Mise à jour: 12/12/2018 03:00

 Vent ENE
Vent: ENE 13 km/h
Visibility: 2 km
2018/12/12 02:00 LFPT 120200Z AUTO 07007KT 2300 0650 R05/0750D BCFG VV/// M00/M01 Q1023
LFPB - Paris/Le Bourget, France
Distance from station: S 132km
Mise à jour: 12/12/2018 03:00
Brume, Partiellement nuageux
Brume, Partiellement nuageux
 Vent NE
Vent: NE 7 km/h
Température: 0°C
Température au vent: -3°C
Point de rosée: 0°C
Humidité: 100%
Baromètre: 1024 hPa
Résumé: Brume
Clouds: Partiellement nuageux
Visibility: 5 km
2018/12/12 02:00 LFPB 120200Z AUTO 05004KT 5000 BR NSC 00/M00 Q1024 TEMPO 0500 FZFG BKN002
 
EBFS - Florennes (bel-A, Belgium
Distance from station: E 133km
Mise à jour: 12/12/2018 02:55
Très nuageux
Très nuageux
 Vent varies
Vent: varies 4 km/h
Température: 0°C
Point de rosée: -2°C
Humidité: 87%
Baromètre: 1024 hPa
Clouds: Très nuageux
Visibility: 10 km
Cloud details: Très nuageux 1463 m
2018/12/12 01:55 EBFS 120155Z AUTO VRB02KT 9999 BKN048/// 00/M02 Q1024 BLU
LFQA - Reims/Prunay, France
Distance from station: SE 143km
Mise à jour: 12/12/2018 03:00
Brouillard givrant
Brouillard givrant
 Vent varies
Vent: varies 2 km/h
Température: -1°C
Point de rosée: -1°C
Humidité: 100%
Baromètre: 1024 hPa
Résumé: Brouillard givrant
Visibility: 1 km
2018/12/12 02:00 LFQA 120200Z AUTO VRB01KT 0700 FZFG VV/// M01/M01 Q1024
LFOP - Rouen/Boos (aut), France
Distance from station: SO 144km
Mise à jour: 12/12/2018 03:00
Couvert
Couvert
 Vent SE
Vent: SE 17 km/h
Température: 2°C
Température au vent: -2°C
Point de rosée: 2°C
Humidité: 100%
Baromètre: 1023 hPa
Clouds: Couvert
Visibility: 7 km
Cloud details: Couvert 152 m
2018/12/12 02:00 LFOP 120200Z AUTO 13009KT 7000 OVC005 02/02 Q1023
 
EBBR - Brussels Nationa, Belgium
Distance from station: NE 148km
Mise à jour: 12/12/2018 03:20
Clair
Clair
 Vent SSO
Vent: SSO 2 km/h
Température: 2°C
Point de rosée: 1°C
Humidité: 93%
Baromètre: 1025 hPa
Résumé: Clair
Visibility: greater than 10 km
2018/12/12 02:20 EBBR 120220Z 21001KT CAVOK 02/01 Q1025 NOSIG
EBBE - Beauvechain (baf, Belgium
Distance from station: ENE 156km
Mise à jour: 12/12/2018 02:55
Très nuageux
Très nuageux
 Vent varies
Vent: varies 2 km/h
Température: 3°C
Point de rosée: 0°C
Humidité: 81%
Baromètre: 1025 hPa
Clouds: Très nuageux
Visibility: 10 km
Cloud details: Quelques nuages 1311 m
Très nuageux 1524 m
2018/12/12 01:55 EBBE 120155Z AUTO VRB01KT 9999 FEW043/// BKN050/// 03/M00 Q1025 BLU
EHFS - Vlissingen, Netherlands
Distance from station: NNE 157km
Mise à jour: 12/12/2018 02:55
Clair
Clair
 Vent ESE
Vent: ESE 6 km/h
Température: 4°C
Point de rosée: 2°C
Humidité: 87%
Baromètre: 1024 hPa
Clouds: Clair
Visibility: 10 km
2018/12/12 01:55 EHFS 120155Z AUTO 11003KT 080V140 9999 NCD 04/02 Q1024 W///H///
 
LFPV - Villacoublay/Vel, France
Distance from station: SSO 157km
Mise à jour: 12/12/2018 03:00
Brume, Très nuageux
Brume, Très nuageux
 Vent ESE
Vent: ESE 9 km/h
Température: 1°C
Température au vent: -2°C
Point de rosée: 1°C
Humidité: 100%
Baromètre: 1023 hPa
Résumé: Brume
Clouds: Très nuageux
Visibility: 4 km
Cloud details: Très nuageux 61 m
2018/12/12 02:00 LFPV 120200Z AUTO 12005KT 090V150 4100 BR BKN002 01/01 Q1023 TEMPO 0600 FG OVC000
EGMD - Lydd Airport, United Kingdom
Distance from station: NO 160km
Mise à jour: 12/12/2018 03:20
Couvert
Couvert
 Vent SSE
Vent: SSE 20 km/h
Température: 8°C
Température au vent: 4°C
Point de rosée: 5°C
Humidité: 82%
Baromètre: 1023 hPa
Clouds: Couvert
Visibility: 10 km
Cloud details: Couvert 1280 m
2018/12/12 02:20 EGMD 120220Z AUTO 16011KT 9999 OVC042/// 08/05 Q1023